Time;durP1;ratioP1;P1;durP2;ratioP2;P2;SDS_P1;SDS_P2;PMS_P1;PMS_P2;Temp;Humidity;BMP_temperature;BMP_pressure;BME280_temperature;BME280_humidity;BME280_pressure;Samples;Min_cycle;Max_cycle;Signal;HPM_P1;HPM_P2
2023/08/07 00:00:58;;;;;;;;;;;;;;;;;;4885752;29;19977;-85
2023/08/07 00:03:24;;;;;;;;;;;;;;;;;;4890551;29;19934;-85
2023/08/07 00:05:51;;;;;;;;;;;;;;;;;;4903604;29;19926;-85
2023/08/07 00:08:17;;;;;;;;;;;;;;;;;;4895771;29;19934;-85
2023/08/07 00:10:43;;;;;;;;;;;;;;;;;;4894972;29;19927;-85
2023/08/07 00:13:09;;;;;;;;;;;;;;;;;;4905276;29;19929;-86
2023/08/07 00:15:35;;;;;;;;;;;;;;;;;;4895832;29;19927;-86
2023/08/07 00:18:01;;;;;;;;;;;;;;;;;;4910848;29;20397;-86
2023/08/07 00:20:27;;;;;;;;;;;;;;;;;;4891674;29;19973;-85
2023/08/07 00:22:53;;;;;;;;;;;;;;;;;;4911348;29;20404;-85
2023/08/07 00:25:19;;;;;;;;;;;;;;;;;;4905950;29;19949;-85
2023/08/07 00:27:45;;;;;;;;;;;;;;;;;;4887860;29;20357;-85
2023/08/07 00:30:11;;;;;;;;;;;;;;;;;;4909656;29;20445;-86
2023/08/07 00:32:37;;;;;;;;;;;;;;;;;;4903060;29;20428;-85
2023/08/07 00:35:04;;;;;;;;;;;;;;;;;;4887597;29;19926;-85
2023/08/07 00:37:30;;;;;;;;;;;;;;;;;;4879829;29;19931;-86
2023/08/07 00:39:56;;;;;;;;;;;;;;;;;;4901556;29;19934;-85
2023/08/07 00:42:22;;;;;;;;;;;;;;;;;;4898881;29;19958;-85
2023/08/07 00:44:48;;;;;;;;;;;;;;;;;;4890683;29;19977;-86
2023/08/07 00:47:14;;;;;;;;;;;;;;;;;;4896615;29;20017;-85
2023/08/07 00:49:40;;;;;;;;;;;;;;;;;;4899162;29;19970;-85
2023/08/07 00:52:06;;;;;;;;;;;;;;;;;;4898570;29;19966;-85
2023/08/07 00:54:32;;;;;;;;;;;;;;;;;;4883984;29;19927;-86
2023/08/07 00:56:57;;;;;;;;;;;;;;;;;;4901188;29;19931;-85
2023/08/07 00:59:23;;;;;;;;;;;;;;;;;;4896848;29;20781;-86
2023/08/07 01:01:49;;;;;;;;;;;;;;;;;;4887460;29;20395;-85
2023/08/07 01:04:15;;;;;;;;;;;;;;;;;;4896059;29;20370;-86
2023/08/07 01:06:41;;;;;;;;;;;;;;;;;;4904591;29;20064;-85
2023/08/07 01:09:07;;;;;;;;;;;;;;;;;;4887690;29;19934;-85
2023/08/07 01:11:34;;;;;;;;;;;;;;;;;;4903415;29;19957;-85
2023/08/07 01:14:00;;;;;;;;;;;;;;;;;;4889082;29;19934;-85
2023/08/07 01:16:26;;;;;;;;;;;;;;;;;;4899515;29;19931;-85
2023/08/07 01:18:52;;;;;;;;;;;;;;;;;;4908313;29;20374;-85
2023/08/07 01:21:18;;;;;;;;;;;;;;;;;;4899094;29;19934;-85
2023/08/07 01:23:44;;;;;;;;;;;;;;;;;;4899953;29;19923;-85
2023/08/07 01:26:10;;;;;;;;;;;;;;;;;;4895704;29;19966;-85
2023/08/07 01:28:36;;;;;;;;;;;;;;;;;;4922448;29;19930;-85
2023/08/07 01:31:02;;;;;;;;;;;;;;;;;;4919498;29;19930;-86
2023/08/07 01:33:29;;;;;;;;;;;;;;;;;;4911429;29;19922;-86
2023/08/07 01:35:55;;;;;;;;;;;;;;;;;;4919056;29;19926;-85
2023/08/07 01:38:21;;;;;;;;;;;;;;;;;;4911289;29;19974;-85
2023/08/07 01:40:47;;;;;;;;;;;;;;;;;;4906582;29;19930;-85
2023/08/07 01:43:13;;;;;;;;;;;;;;;;;;4915303;29;19927;-85
2023/08/07 01:45:39;;;;;;;;;;;;;;;;;;4902829;29;19926;-85
2023/08/07 01:48:05;;;;;;;;;;;;;;;;;;4921542;29;19974;-85
2023/08/07 01:50:31;;;;;;;;;;;;;;;;;;4896547;29;19933;-85
2023/08/07 01:52:57;;;;;;;;;;;;;;;;;;4881337;29;19935;-85
2023/08/07 01:55:23;;;;;;;;;;;;;;;;;;4901203;29;19931;-85
2023/08/07 01:57:49;;;;;;;;;;;;;;;;;;4902975;29;20022;-86
2023/08/07 02:00:15;;;;;;;;;;;;;;;;;;4894438;29;20013;-86
2023/08/07 02:02:41;;;;;;;;;;;;;;;;;;4885278;29;19923;-85
2023/08/07 02:05:07;;;;;;;;;;;;;;;;;;4882820;29;19937;-85
2023/08/07 02:07:33;;;;;;;;;;;;;;;;;;4882057;29;20115;-85
2023/08/07 02:09:59;;;;;;;;;;;;;;;;;;4883961;29;19930;-85
2023/08/07 02:12:26;;;;;;;;;;;;;;;;;;4894985;29;20342;-85
2023/08/07 02:14:52;;;;;;;;;;;;;;;;;;4897760;29;19931;-86
2023/08/07 02:17:18;;;;;;;;;;;;;;;;;;4877045;29;19927;-85
2023/08/07 02:19:44;;;;;;;;;;;;;;;;;;4898516;29;20004;-85
2023/08/07 02:22:10;;;;;;;;;;;;;;;;;;4892769;29;20014;-85
2023/08/07 02:24:36;;;;;;;;;;;;;;;;;;4881555;29;20366;-85
2023/08/07 02:27:02;;;;;;;;;;;;;;;;;;4896977;29;19930;-85
2023/08/07 02:29:29;;;;;;;;;;;;;;;;;;4893978;29;19931;-85
2023/08/07 02:31:55;;;;;;;;;;;;;;;;;;4897226;29;20026;-85
2023/08/07 02:34:21;;;;;;;;;;;;;;;;;;4891626;29;20018;-85
2023/08/07 02:36:47;;;;;;;;;;;;;;;;;;4899679;29;19961;-85
2023/08/07 02:39:13;;;;;;;;;;;;;;;;;;4894559;29;19933;-85
2023/08/07 02:41:39;;;;;;;;;;;;;;;;;;4897860;29;19967;-85
2023/08/07 02:44:05;;;;;;;;;;;;;;;;;;4891022;29;19923;-85
2023/08/07 02:46:31;;;;;;;;;;;;;;;;;;4876813;29;19934;-85
2023/08/07 02:48:57;;;;;;;;;;;;;;;;;;4914022;29;19931;-85
2023/08/07 02:51:23;;;;;;;;;;;;;;;;;;4896725;29;20411;-85
2023/08/07 02:53:49;;;;;;;;;;;;;;;;;;4884445;29;19931;-85
2023/08/07 02:56:15;;;;;;;;;;;;;;;;;;4898284;29;19962;-86
2023/08/07 02:58:41;;;;;;;;;;;;;;;;;;4916112;29;19945;-85
2023/08/07 03:01:07;;;;;;;;;;;;;;;;;;4912633;29;20010;-85
2023/08/07 03:03:33;;;;;;;;;;;;;;;;;;4898667;29;20298;-85
2023/08/07 03:05:59;;;;;;;;;;;;;;;;;;4899137;29;20015;-85
2023/08/07 03:08:25;;;;;;;;;;;;;;;;;;4893207;29;19930;-85
2023/08/07 03:10:51;;;;;;;;;;;;;;;;;;4896994;29;19938;-85
2023/08/07 03:13:16;;;;;;;;;;;;;;;;;;4875557;29;20001;-85
2023/08/07 03:15:42;;;;;;;;;;;;;;;;;;4882794;29;19962;-85
2023/08/07 03:18:08;;;;;;;;;;;;;;;;;;4896215;29;19927;-85
2023/08/07 03:20:34;;;;;;;;;;;;;;;;;;4880741;29;19927;-85
2023/08/07 03:23:00;;;;;;;;;;;;;;;;;;4909118;29;19926;-85
2023/08/07 03:25:26;;;;;;;;;;;;;;;;;;4909873;29;19930;-86
2023/08/07 03:27:52;;;;;;;;;;;;;;;;;;4896548;29;19927;-85
2023/08/07 03:30:18;;;;;;;;;;;;;;;;;;4906384;29;19931;-86
2023/08/07 03:32:44;;;;;;;;;;;;;;;;;;4913005;29;19930;-85
2023/08/07 03:35:10;;;;;;;;;;;;;;;;;;4896221;29;19934;-86
2023/08/07 03:37:39;;;;;;;;;;;;;;;;;;4916115;29;19934;-85
2023/08/07 03:40:05;;;;;;;;;;;;;;;;;;4920651;29;20266;-85
2023/08/07 03:42:31;;;;;;;;;;;;;;;;;;4898783;29;20022;-85
2023/08/07 03:44:57;;;;;;;;;;;;;;;;;;4905686;29;19930;-85
2023/08/07 03:47:23;;;;;;;;;;;;;;;;;;4912968;29;19934;-86
2023/08/07 03:49:49;;;;;;;;;;;;;;;;;;4900115;29;19927;-85
2023/08/07 03:52:15;;;;;;;;;;;;;;;;;;4878667;29;19972;-86
2023/08/07 03:54:41;;;;;;;;;;;;;;;;;;4902745;29;19927;-85
2023/08/07 03:57:08;;;;;;;;;;;;;;;;;;4884408;29;19983;-85
2023/08/07 03:59:34;;;;;;;;;;;;;;;;;;4903306;29;19927;-85
2023/08/07 04:02:00;;;;;;;;;;;;;;;;;;4908736;29;20000;-85
2023/08/07 04:04:26;;;;;;;;;;;;;;;;;;4910529;29;19986;-86
2023/08/07 04:06:52;;;;;;;;;;;;;;;;;;4899350;29;19927;-85
2023/08/07 04:09:18;;;;;;;;;;;;;;;;;;4887484;29;19958;-86
2023/08/07 04:11:44;;;;;;;;;;;;;;;;;;4896603;29;19923;-85
2023/08/07 04:14:11;;;;;;;;;;;;;;;;;;4890001;29;20273;-86
2023/08/07 04:16:37;;;;;;;;;;;;;;;;;;4897512;29;20361;-85
2023/08/07 04:19:03;;;;;;;;;;;;;;;;;;4896654;29;19931;-85
2023/08/07 04:21:29;;;;;;;;;;;;;;;;;;4887993;29;22003;-85
2023/08/07 04:23:55;;;;;;;;;;;;;;;;;;4879116;29;19923;-85
2023/08/07 04:26:21;;;;;;;;;;;;;;;;;;4888100;29;19938;-85
2023/08/07 04:28:47;;;;;;;;;;;;;;;;;;4894652;29;20022;-85
2023/08/07 04:31:13;;;;;;;;;;;;;;;;;;4877318;29;19946;-90
2023/08/07 04:33:39;;;;;;;;;;;;;;;;;;4880911;29;19927;-88
2023/08/07 04:36:05;;;;;;;;;;;;;;;;;;4894611;29;19934;-88
2023/08/07 04:38:31;;;;;;;;;;;;;;;;;;4893267;29;19931;-88
2023/08/07 04:40:57;;;;;;;;;;;;;;;;;;4883138;29;19978;-87
2023/08/07 04:43:23;;;;;;;;;;;;;;;;;;4881693;29;19942;-87
2023/08/07 04:45:49;;;;;;;;;;;;;;;;;;4902354;29;19974;-88
2023/08/07 04:48:15;;;;;;;;;;;;;;;;;;4894109;29;19978;-89
2023/08/07 04:50:41;;;;;;;;;;;;;;;;;;4883023;29;20383;-93
2023/08/07 04:53:07;;;;;;;;;;;;;;;;;;4882576;29;20291;-89
2023/08/07 04:55:33;;;;;;;;;;;;;;;;;;4898527;29;20041;-89
2023/08/07 04:57:59;;;;;;;;;;;;;;;;;;4883111;29;19923;-89
2023/08/07 05:00:25;;;;;;;;;;;;;;;;;;4880764;29;19923;-88
2023/08/07 05:02:51;;;;;;;;;;;;;;;;;;4890235;29;19934;-88
2023/08/07 05:05:18;;;;;;;;;;;;;;;;;;4894333;29;20374;-88
2023/08/07 05:07:44;;;;;;;;;;;;;;;;;;4897287;29;19972;-88
2023/08/07 05:10:10;;;;;;;;;;;;;;;;;;4893202;29;20014;-88
2023/08/07 05:12:36;;;;;;;;;;;;;;;;;;4888475;29;19994;-88
2023/08/07 05:15:02;;;;;;;;;;;;;;;;;;4907189;29;20021;-88
2023/08/07 05:17:28;;;;;;;;;;;;;;;;;;4891706;29;19981;-88
2023/08/07 05:19:54;;;;;;;;;;;;;;;;;;4898709;29;19927;-88
2023/08/07 05:22:20;;;;;;;;;;;;;;;;;;4879855;29;20057;-88
2023/08/07 05:24:48;;;;;;;;;;;;;;;;;;4900871;29;19926;-88
2023/08/07 05:27:14;;;;;;;;;;;;;;;;;;4893412;29;19933;-88
2023/08/07 05:29:43;;;;;;;;;;;;;;;;;;4898903;29;20366;-89
2023/08/07 05:32:10;;;;;;;;;;;;;;;;;;4882709;29;19958;-89
2023/08/07 05:34:36;;;;;;;;;;;;;;;;;;4888402;29;19930;-89
2023/08/07 05:37:02;;;;;;;;;;;;;;;;;;4896663;29;19950;-90
2023/08/07 05:39:28;;;;;;;;;;;;;;;;;;4880129;29;20359;-88
2023/08/07 05:41:57;;;;;;;;;;;;;;;;;;4903406;29;20057;-88
2023/08/07 05:44:23;;;;;;;;;;;;;;;;;;4882606;29;19934;-88
2023/08/07 05:46:49;;;;;;;;;;;;;;;;;;4902080;29;19923;-88
2023/08/07 05:49:15;;;;;;;;;;;;;;;;;;4915248;29;19927;-88
2023/08/07 05:51:41;;;;;;;;;;;;;;;;;;4915782;29;19931;-88
2023/08/07 05:54:07;;;;;;;;;;;;;;;;;;4902341;29;20561;-88
2023/08/07 05:56:33;;;;;;;;;;;;;;;;;;4900171;29;19928;-88
2023/08/07 05:58:59;;;;;;;;;;;;;;;;;;4910945;29;19929;-88
2023/08/07 06:01:30;;;;;;;;;;;;;;;;;;4898852;29;20016;-88
2023/08/07 06:03:56;;;;;;;;;;;;;;;;;;4903467;29;19962;-88
2023/08/07 06:06:23;;;;;;;;;;;;;;;;;;4894895;29;19927;-88
2023/08/07 06:08:49;;;;;;;;;;;;;;;;;;4894487;29;19927;-88
2023/08/07 06:11:14;;;;;;;;;;;;;;;;;;4894524;29;20310;-88
2023/08/07 06:13:40;;;;;;;;;;;;;;;;;;4886697;29;20318;-88
2023/08/07 06:16:06;;;;;;;;;;;;;;;;;;4907346;29;19966;-88
2023/08/07 06:18:33;;;;;;;;;;;;;;;;;;4901326;29;19930;-88
2023/08/07 06:20:59;;;;;;;;;;;;;;;;;;4901212;29;20518;-88
2023/08/07 06:23:25;;;;;;;;;;;;;;;;;;4892622;29;20043;-88
2023/08/07 06:25:51;;;;;;;;;;;;;;;;;;4886211;29;19923;-87
2023/08/07 06:28:17;;;;;;;;;;;;;;;;;;4895035;29;19934;-88
2023/08/07 06:30:43;;;;;;;;;;;;;;;;;;4896608;29;19941;-87
2023/08/07 06:33:09;;;;;;;;;;;;;;;;;;4898524;29;20393;-87
2023/08/07 06:35:35;;;;;;;;;;;;;;;;;;4904466;29;20012;-87
2023/08/07 06:38:01;;;;;;;;;;;;;;;;;;4881734;29;19931;-87
2023/08/07 06:40:27;;;;;;;;;;;;;;;;;;4878038;29;19931;-87
2023/08/07 06:42:54;;;;;;;;;;;;;;;;;;4900937;29;20022;-87
2023/08/07 06:45:20;;;;;;;;;;;;;;;;;;4901951;29;20037;-87
2023/08/07 06:47:46;;;;;;;;;;;;;;;;;;4874535;29;20392;-87
2023/08/07 06:50:12;;;;;;;;;;;;;;;;;;4878341;29;19931;-87
2023/08/07 06:52:38;;;;;;;;;;;;;;;;;;4897892;29;19945;-87
2023/08/07 06:55:03;;;;;;;;;;;;;;;;;;4900571;29;19927;-87
2023/08/07 06:57:42;;;;;;;;;;;;;;;;;;4898346;29;20033;-87
2023/08/07 07:00:10;;;;;;;;;;;;;;;;;;4891607;29;20012;-87
2023/08/07 07:02:36;;;;;;;;;;;;;;;;;;4880844;29;19926;-87
2023/08/07 07:05:02;;;;;;;;;;;;;;;;;;4881170;29;19946;-87
2023/08/07 07:07:31;;;;;;;;;;;;;;;;;;4910533;29;20117;-86
2023/08/07 07:10:00;;;;;;;;;;;;;;;;;;4896036;29;20346;-87
2023/08/07 07:12:29;;;;;;;;;;;;;;;;;;4895491;29;19998;-86
2023/08/07 07:14:55;;;;;;;;;;;;;;;;;;4912416;29;19933;-87
2023/08/07 07:17:21;;;;;;;;;;;;;;;;;;4893434;29;19922;-87
2023/08/07 07:19:47;;;;;;;;;;;;;;;;;;4885801;29;19931;-87
2023/08/07 07:22:13;;;;;;;;;;;;;;;;;;4894062;29;20025;-86
2023/08/07 07:24:39;;;;;;;;;;;;;;;;;;4887336;29;19930;-87
2023/08/07 07:27:05;;;;;;;;;;;;;;;;;;4894899;29;20362;-86
2023/08/07 07:29:31;;;;;;;;;;;;;;;;;;4876609;29;20009;-86
2023/08/07 07:31:57;;;;;;;;;;;;;;;;;;4896601;29;19935;-86
2023/08/07 07:34:23;;;;;;;;;;;;;;;;;;4877297;29;19927;-86
2023/08/07 07:36:49;;;;;;;;;;;;;;;;;;4892085;29;19951;-86
2023/08/07 07:39:15;;;;;;;;;;;;;;;;;;4880548;29;20381;-87
2023/08/07 07:41:41;;;;;;;;;;;;;;;;;;4897992;29;19978;-86
2023/08/07 07:44:07;;;;;;;;;;;;;;;;;;4917446;29;19927;-86
2023/08/07 07:46:33;;;;;;;;;;;;;;;;;;4884841;29;19933;-86
2023/08/07 07:48:59;;;;;;;;;;;;;;;;;;4903783;29;20513;-86
2023/08/07 07:51:24;;;;;;;;;;;;;;;;;;4897992;29;20394;-86
2023/08/07 07:53:50;;;;;;;;;;;;;;;;;;4893595;29;19927;-86
2023/08/07 07:56:16;;;;;;;;;;;;;;;;;;4877319;29;19927;-86
2023/08/07 07:58:43;;;;;;;;;;;;;;;;;;4897024;29;19955;-86
2023/08/07 08:01:09;;;;;;;;;;;;;;;;;;4892188;29;19934;-87
2023/08/07 08:03:35;;;;;;;;;;;;;;;;;;4884171;29;19931;-86
2023/08/07 08:06:01;;;;;;;;;;;;;;;;;;4912668;29;20369;-87
2023/08/07 08:08:27;;;;;;;;;;;;;;;;;;4890335;29;20242;-87
2023/08/07 08:10:53;;;;;;;;;;;;;;;;;;4894618;29;20038;-87
2023/08/07 08:13:19;;;;;;;;;;;;;;;;;;4878841;29;19934;-87
2023/08/07 08:15:45;;;;;;;;;;;;;;;;;;4884977;29;19982;-87
2023/08/07 08:18:11;;;;;;;;;;;;;;;;;;4875833;29;19934;-87
2023/08/07 08:20:37;;;;;;;;;;;;;;;;;;4912040;29;19923;-87
2023/08/07 08:23:03;;;;;;;;;;;;;;;;;;4887077;29;20370;-87
2023/08/07 08:25:29;;;;;;;;;;;;;;;;;;4893143;29;20689;-86
2023/08/07 08:27:55;;;;;;;;;;;;;;;;;;4898305;29;19934;-86
2023/08/07 08:30:21;;;;;;;;;;;;;;;;;;4889554;29;20298;-87
2023/08/07 08:32:47;;;;;;;;;;;;;;;;;;4886283;29;19939;-87
2023/08/07 08:35:13;;;;;;;;;;;;;;;;;;4882063;29;19923;-87
2023/08/07 08:37:40;;;;;;;;;;;;;;;;;;4897287;29;19938;-87
2023/08/07 08:40:07;;;;;;;;;;;;;;;;;;4887344;29;20323;-86
2023/08/07 08:42:33;;;;;;;;;;;;;;;;;;4897182;29;19956;-87
2023/08/07 08:44:59;;;;;;;;;;;;;;;;;;4904466;29;20309;-87
2023/08/07 08:47:25;;;;;;;;;;;;;;;;;;4881275;29;20449;-87
2023/08/07 08:49:51;;;;;;;;;;;;;;;;;;4889155;29;19930;-87
2023/08/07 08:52:17;;;;;;;;;;;;;;;;;;4897754;29;19954;-87
2023/08/07 08:54:43;;;;;;;;;;;;;;;;;;4897893;29;20494;-86
2023/08/07 08:57:09;;;;;;;;;;;;;;;;;;4887274;29;20011;-86
2023/08/07 08:59:35;;;;;;;;;;;;;;;;;;4881660;29;19927;-86
2023/08/07 09:02:01;;;;;;;;;;;;;;;;;;4902683;29;20275;-86
2023/08/07 09:04:27;;;;;;;;;;;;;;;;;;4896414;29;19926;-86
2023/08/07 09:06:53;;;;;;;;;;;;;;;;;;4886009;29;19977;-86
2023/08/07 09:09:19;;;;;;;;;;;;;;;;;;4899123;29;19942;-86
2023/08/07 09:11:45;;;;;;;;;;;;;;;;;;4888026;29;19954;-86
2023/08/07 09:14:12;;;;;;;;;;;;;;;;;;4881902;29;19934;-86
2023/08/07 09:16:38;;;;;;;;;;;;;;;;;;4885586;29;19930;-86
2023/08/07 09:19:04;;;;;;;;;;;;;;;;;;4915867;29;19954;-85
2023/08/07 09:21:30;;;;;;;;;;;;;;;;;;4894067;29;20258;-86
2023/08/07 09:23:56;;;;;;;;;;;;;;;;;;4901820;29;19926;-86
2023/08/07 09:26:24;;;;;;;;;;;;;;;;;;4894875;29;20469;-86
2023/08/07 09:28:49;;;;;;;;;;;;;;;;;;4888811;29;20013;-86
2023/08/07 09:31:15;;;;;;;;;;;;;;;;;;4895545;29;20096;-86
2023/08/07 09:33:41;;;;;;;;;;;;;;;;;;4886552;29;20197;-86
2023/08/07 09:36:07;;;;;;;;;;;;;;;;;;4883253;29;20521;-86
2023/08/07 09:38:33;;;;;;;;;;;;;;;;;;4895829;29;19926;-86
2023/08/07 09:41:00;;;;;;;;;;;;;;;;;;4918261;29;19933;-86
2023/08/07 09:43:26;;;;;;;;;;;;;;;;;;4882179;29;19956;-86
2023/08/07 09:45:52;;;;;;;;;;;;;;;;;;4901087;29;19923;-86
2023/08/07 09:48:18;;;;;;;;;;;;;;;;;;4881691;29;20316;-86
2023/08/07 09:50:44;;;;;;;;;;;;;;;;;;4883779;29;19926;-86
2023/08/07 09:53:10;;;;;;;;;;;;;;;;;;4894995;29;21325;-85
2023/08/07 09:55:36;;;;;;;;;;;;;;;;;;4885664;29;19927;-86
2023/08/07 09:58:02;;;;;;;;;;;;;;;;;;4898367;29;19923;-86
2023/08/07 10:00:28;;;;;;;;;;;;;;;;;;4894355;29;19934;-85
2023/08/07 10:02:54;;;;;;;;;;;;;;;;;;4885678;29;20065;-86
2023/08/07 10:05:20;;;;;;;;;;;;;;;;;;4878591;29;19930;-86
2023/08/07 10:07:46;;;;;;;;;;;;;;;;;;4900295;29;20412;-86
2023/08/07 10:10:12;;;;;;;;;;;;;;;;;;4893821;29;19937;-86
2023/08/07 10:12:38;;;;;;;;;;;;;;;;;;4881831;29;19927;-86
2023/08/07 10:15:04;;;;;;;;;;;;;;;;;;4898859;29;19970;-85
2023/08/07 10:17:30;;;;;;;;;;;;;;;;;;4898639;29;19946;-86
2023/08/07 10:19:57;;;;;;;;;;;;;;;;;;4886564;29;20772;-85
2023/08/07 10:22:22;;;;;;;;;;;;;;;;;;4896539;29;19926;-86
2023/08/07 10:24:48;;;;;;;;;;;;;;;;;;4900229;29;19949;-86
2023/08/07 10:27:14;;;;;;;;;;;;;;;;;;4893395;29;19935;-86
2023/08/07 10:29:40;;;;;;;;;;;;;;;;;;4880961;29;20445;-86
2023/08/07 10:32:06;;;;;;;;;;;;;;;;;;4898187;29;20473;-86
2023/08/07 10:34:32;;;;;;;;;;;;;;;;;;4870274;29;19922;-86
2023/08/07 10:36:58;;;;;;;;;;;;;;;;;;4897666;29;19927;-86
2023/08/07 10:39:24;;;;;;;;;;;;;;;;;;4875942;29;19934;-86
2023/08/07 10:41:50;;;;;;;;;;;;;;;;;;4897804;29;19970;-86
2023/08/07 10:44:16;;;;;;;;;;;;;;;;;;4893288;29;19923;-86
2023/08/07 10:46:42;;;;;;;;;;;;;;;;;;4897279;29;19937;-86
2023/08/07 10:49:09;;;;;;;;;;;;;;;;;;4885951;29;20366;-86
2023/08/07 10:51:35;;;;;;;;;;;;;;;;;;4884638;29;20302;-86
2023/08/07 10:54:01;;;;;;;;;;;;;;;;;;4885154;29;19926;-86
2023/08/07 10:56:27;;;;;;;;;;;;;;;;;;4894409;29;20393;-86
2023/08/07 10:58:53;;;;;;;;;;;;;;;;;;4880265;29;20006;-86
2023/08/07 11:01:19;;;;;;;;;;;;;;;;;;4881329;29;19931;-86
2023/08/07 11:03:45;;;;;;;;;;;;;;;;;;4901169;29;20370;-86
2023/08/07 11:06:11;;;;;;;;;;;;;;;;;;4892230;29;19930;-86
2023/08/07 11:08:37;;;;;;;;;;;;;;;;;;4899266;29;19931;-86
2023/08/07 11:11:03;;;;;;;;;;;;;;;;;;4883096;29;19927;-86
2023/08/07 11:13:29;;;;;;;;;;;;;;;;;;4876508;29;21256;-87
2023/08/07 11:15:55;;;;;;;;;;;;;;;;;;4897535;29;19927;-86
2023/08/07 11:18:21;;;;;;;;;;;;;;;;;;4896722;29;20009;-86
2023/08/07 11:20:47;;;;;;;;;;;;;;;;;;4898088;29;19931;-86
2023/08/07 11:23:13;;;;;;;;;;;;;;;;;;4895991;29;20397;-86
2023/08/07 11:25:39;;;;;;;;;;;;;;;;;;4914650;29;19927;-86
2023/08/07 11:28:08;;;;;;;;;;;;;;;;;;4885412;29;19930;-86
2023/08/07 11:30:35;;;;;;;;;;;;;;;;;;4893244;29;19937;-86
2023/08/07 11:33:01;;;;;;;;;;;;;;;;;;4899140;29;20278;-86
2023/08/07 11:35:27;;;;;;;;;;;;;;;;;;4894934;29;20023;-86
2023/08/07 11:37:54;;;;;;;;;;;;;;;;;;4901764;29;20384;-86
2023/08/07 11:40:20;;;;;;;;;;;;;;;;;;4878528;29;19927;-86
2023/08/07 11:42:46;;;;;;;;;;;;;;;;;;4894308;29;20571;-87
2023/08/07 11:45:12;;;;;;;;;;;;;;;;;;4894451;29;19923;-87
2023/08/07 11:47:38;;;;;;;;;;;;;;;;;;4900327;29;19931;-86
2023/08/07 11:50:04;;;;;;;;;;;;;;;;;;4884110;29;19927;-87
2023/08/07 11:52:30;;;;;;;;;;;;;;;;;;4895584;29;20341;-86
2023/08/07 11:54:56;;;;;;;;;;;;;;;;;;4882270;29;19958;-86
2023/08/07 11:57:22;;;;;;;;;;;;;;;;;;4894432;29;19926;-86
2023/08/07 11:59:48;;;;;;;;;;;;;;;;;;4914130;29;19927;-86
2023/08/07 12:02:14;;;;;;;;;;;;;;;;;;4892410;29;19923;-86
2023/08/07 12:04:40;;;;;;;;;;;;;;;;;;4899326;29;19937;-86
2023/08/07 12:07:06;;;;;;;;;;;;;;;;;;4900031;29;19923;-86
2023/08/07 12:09:33;;;;;;;;;;;;;;;;;;4880812;29;19935;-87
2023/08/07 12:11:59;;;;;;;;;;;;;;;;;;4884533;29;19962;-86
2023/08/07 12:14:25;;;;;;;;;;;;;;;;;;4878110;29;19929;-86
2023/08/07 12:16:51;;;;;;;;;;;;;;;;;;4897007;29;20006;-86
2023/08/07 12:19:19;;;;;;;;;;;;;;;;;;4894251;29;20058;-86
2023/08/07 12:21:44;;;;;;;;;;;;;;;;;;4897272;29;19927;-86
2023/08/07 12:24:10;;;;;;;;;;;;;;;;;;4913302;29;19927;-87
2023/08/07 12:26:36;;;;;;;;;;;;;;;;;;4897183;29;20385;-87
2023/08/07 12:29:03;;;;;;;;;;;;;;;;;;4882035;29;19935;-86
2023/08/07 12:31:29;;;;;;;;;;;;;;;;;;4894374;29;20484;-86
2023/08/07 12:33:55;;;;;;;;;;;;;;;;;;4896816;29;19969;-86
2023/08/07 12:36:21;;;;;;;;;;;;;;;;;;4890078;29;19923;-86
2023/08/07 12:38:47;;;;;;;;;;;;;;;;;;4896563;29;20247;-86
2023/08/07 12:41:14;;;;;;;;;;;;;;;;;;4893208;29;20313;-86
2023/08/07 12:43:40;;;;;;;;;;;;;;;;;;4884103;29;19929;-86
2023/08/07 12:46:06;;;;;;;;;;;;;;;;;;4900201;29;20421;-86
2023/08/07 12:48:31;;;;;;;;;;;;;;;;;;4894705;29;20351;-86
2023/08/07 12:50:57;;;;;;;;;;;;;;;;;;4894815;29;20484;-86
2023/08/07 12:53:23;;;;;;;;;;;;;;;;;;4891509;29;19974;-86
2023/08/07 12:55:49;;;;;;;;;;;;;;;;;;4884057;29;20402;-86
2023/08/07 12:58:18;;;;;;;;;;;;;;;;;;4889978;29;20474;-86
2023/08/07 13:00:45;;;;;;;;;;;;;;;;;;4880263;29;20338;-87
2023/08/07 13:03:11;;;;;;;;;;;;;;;;;;4880598;29;19929;-86
2023/08/07 13:05:38;;;;;;;;;;;;;;;;;;4906954;29;19923;-86
2023/08/07 13:08:04;;;;;;;;;;;;;;;;;;4918780;29;20416;-86
2023/08/07 13:10:31;;;;;;;;;;;;;;;;;;4899830;29;20223;-86
2023/08/07 13:12:57;;;;;;;;;;;;;;;;;;4912264;29;20029;-86
2023/08/07 13:15:25;;;;;;;;;;;;;;;;;;4895986;29;20014;-86
2023/08/07 13:17:51;;;;;;;;;;;;;;;;;;4888121;29;19934;-86
2023/08/07 13:20:20;;;;;;;;;;;;;;;;;;4910178;29;19931;-84
2023/08/07 13:22:47;;;;;;;;;;;;;;;;;;4901254;29;19931;-86
2023/08/07 13:25:14;;;;;;;;;;;;;;;;;;4882986;29;19923;-87
2023/08/07 13:27:40;;;;;;;;;;;;;;;;;;4897154;29;19922;-86
2023/08/07 13:30:06;;;;;;;;;;;;;;;;;;4892245;29;19931;-86
2023/08/07 13:32:32;;;;;;;;;;;;;;;;;;4879842;29;20008;-87
2023/08/07 13:34:58;;;;;;;;;;;;;;;;;;4888769;29;19923;-86
2023/08/07 13:37:24;;;;;;;;;;;;;;;;;;4897563;29;20395;-87
2023/08/07 13:39:52;;;;;;;;;;;;;;;;;;4909565;29;19930;-87
2023/08/07 13:42:18;;;;;;;;;;;;;;;;;;4881794;29;19933;-87
2023/08/07 13:44:44;;;;;;;;;;;;;;;;;;4883930;29;19934;-86
2023/08/07 13:47:11;;;;;;;;;;;;;;;;;;4890456;29;20083;-86
2023/08/07 13:49:37;;;;;;;;;;;;;;;;;;4897266;29;19926;-86
2023/08/07 13:52:03;;;;;;;;;;;;;;;;;;4895680;29;20306;-87
2023/08/07 13:54:30;;;;;;;;;;;;;;;;;;4884059;29;21227;-86
2023/08/07 13:56:56;;;;;;;;;;;;;;;;;;4889282;29;20290;-87
2023/08/07 13:59:22;;;;;;;;;;;;;;;;;;4884798;29;19923;-86
2023/08/07 14:01:48;;;;;;;;;;;;;;;;;;4904803;29;20287;-87
2023/08/07 14:04:15;;;;;;;;;;;;;;;;;;4904664;29;19926;-87
2023/08/07 14:06:43;;;;;;;;;;;;;;;;;;4887667;29;19977;-87
2023/08/07 14:09:10;;;;;;;;;;;;;;;;;;4895064;29;19934;-87
2023/08/07 14:11:37;;;;;;;;;;;;;;;;;;4885225;29;20314;-87
2023/08/07 14:14:03;;;;;;;;;;;;;;;;;;4897266;29;20631;-86
2023/08/07 14:16:31;;;;;;;;;;;;;;;;;;4911258;29;20068;-87
2023/08/07 14:18:57;;;;;;;;;;;;;;;;;;4888213;29;20405;-86
2023/08/07 14:21:23;;;;;;;;;;;;;;;;;;4892135;29;19982;-86
2023/08/07 14:23:49;;;;;;;;;;;;;;;;;;4884225;29;19927;-86
2023/08/07 14:26:15;;;;;;;;;;;;;;;;;;4878056;29;19923;-87
2023/08/07 14:28:41;;;;;;;;;;;;;;;;;;4883791;29;19949;-86
2023/08/07 14:31:08;;;;;;;;;;;;;;;;;;4884194;29;20366;-87
2023/08/07 14:33:34;;;;;;;;;;;;;;;;;;4892063;29;20006;-87
2023/08/07 14:36:00;;;;;;;;;;;;;;;;;;4897853;29;19927;-87
2023/08/07 14:38:26;;;;;;;;;;;;;;;;;;4874533;29;19981;-90
2023/08/07 14:40:52;;;;;;;;;;;;;;;;;;4880423;29;20262;-88
2023/08/07 14:43:18;;;;;;;;;;;;;;;;;;4882705;29;19927;-89
2023/08/07 14:45:44;;;;;;;;;;;;;;;;;;4900848;29;19954;-86
2023/08/07 14:48:13;;;;;;;;;;;;;;;;;;4894920;29;20014;-86
2023/08/07 14:50:39;;;;;;;;;;;;;;;;;;4896475;29;19934;-88
2023/08/07 14:53:05;;;;;;;;;;;;;;;;;;4884687;29;19926;-89
2023/08/07 14:55:31;;;;;;;;;;;;;;;;;;4895518;29;19943;-88
2023/08/07 14:57:57;;;;;;;;;;;;;;;;;;4917368;29;19931;-88
2023/08/07 15:00:23;;;;;;;;;;;;;;;;;;4910937;29;19931;-88
2023/08/07 15:02:49;;;;;;;;;;;;;;;;;;4902246;29;19926;-87
2023/08/07 15:05:15;;;;;;;;;;;;;;;;;;4892364;29;20456;-88
2023/08/07 15:07:41;;;;;;;;;;;;;;;;;;4899334;29;19942;-86
2023/08/07 15:10:07;;;;;;;;;;;;;;;;;;4884805;29;19935;-89
2023/08/07 15:12:33;;;;;;;;;;;;;;;;;;4894212;29;19926;-89
2023/08/07 15:14:59;;;;;;;;;;;;;;;;;;4883504;29;19923;-89
2023/08/07 15:17:25;;;;;;;;;;;;;;;;;;4890245;29;19923;-89
2023/08/07 15:19:51;;;;;;;;;;;;;;;;;;4916618;29;20357;-87
2023/08/07 15:22:17;;;;;;;;;;;;;;;;;;4875931;29;19927;-88
2023/08/07 15:24:43;;;;;;;;;;;;;;;;;;4883139;29;20013;-86
2023/08/07 15:27:09;;;;;;;;;;;;;;;;;;4915185;29;20482;-87
2023/08/07 15:29:35;;;;;;;;;;;;;;;;;;4880526;29;20282;-87
2023/08/07 15:32:01;;;;;;;;;;;;;;;;;;4898675;29;19927;-88
2023/08/07 15:34:27;;;;;;;;;;;;;;;;;;4894350;29;20271;-87
2023/08/07 15:36:53;;;;;;;;;;;;;;;;;;4896270;29;19935;-87
2023/08/07 15:39:19;;;;;;;;;;;;;;;;;;4891580;29;19927;-86
2023/08/07 15:41:45;;;;;;;;;;;;;;;;;;4893784;29;20293;-86
2023/08/07 15:44:11;;;;;;;;;;;;;;;;;;4878285;29;19969;-87
2023/08/07 15:46:37;;;;;;;;;;;;;;;;;;4897874;29;19950;-86
2023/08/07 15:49:03;;;;;;;;;;;;;;;;;;4899638;29;20496;-87
2023/08/07 15:51:29;;;;;;;;;;;;;;;;;;4892491;29;21891;-87
2023/08/07 15:53:57;;;;;;;;;;;;;;;;;;4901230;29;19931;-88
2023/08/07 15:56:23;;;;;;;;;;;;;;;;;;4890080;29;20017;-87
2023/08/07 15:58:50;;;;;;;;;;;;;;;;;;4897041;29;19931;-93
2023/08/07 16:01:16;;;;;;;;;;;;;;;;;;4878232;29;20431;-91
2023/08/07 16:03:42;;;;;;;;;;;;;;;;;;4898357;29;20040;-90
2023/08/07 16:06:09;;;;;;;;;;;;;;;;;;4897306;29;20396;-89
2023/08/07 16:08:35;;;;;;;;;;;;;;;;;;4882395;29;20021;-91
2023/08/07 16:11:02;;;;;;;;;;;;;;;;;;4898895;29;19934;-96
2023/08/07 16:13:28;;;;;;;;;;;;;;;;;;4896930;29;19994;-94
2023/08/07 16:15:54;;;;;;;;;;;;;;;;;;4883478;29;20381;-87
2023/08/07 16:18:20;;;;;;;;;;;;;;;;;;4896044;29;20072;-86
2023/08/07 16:20:46;;;;;;;;;;;;;;;;;;4895242;29;19934;-85
2023/08/07 16:23:12;;;;;;;;;;;;;;;;;;4889807;29;19929;-87
2023/08/07 16:25:38;;;;;;;;;;;;;;;;;;4899521;29;19923;-86
2023/08/07 16:28:05;;;;;;;;;;;;;;;;;;4900316;29;19985;-89
2023/08/07 16:30:33;;;;;;;;;;;;;;;;;;4877127;29;19973;-87
2023/08/07 16:32:59;;;;;;;;;;;;;;;;;;4897774;29;20041;-87
2023/08/07 16:35:25;;;;;;;;;;;;;;;;;;4888248;29;20434;-83
2023/08/07 16:37:52;;;;;;;;;;;;;;;;;;4912878;29;19957;-86